createdAt,value
2023-03-30T00:00:49.083Z,98638.59
2023-03-30T00:03:19.517Z,98554.06
2023-03-30T00:05:50.202Z,98536.59
2023-03-30T00:08:18.439Z,98578.47
2023-03-30T00:10:46.383Z,98646.56
2023-03-30T00:13:13.523Z,98590.31
2023-03-30T00:15:41.323Z,98636.47
2023-03-30T00:18:09.369Z,98638.09
2023-03-30T00:20:37.641Z,98590.41
2023-03-30T00:23:04.676Z,98580.72
2023-03-30T00:25:31.623Z,98558.03
2023-03-30T00:27:58.387Z,98585.22
2023-03-30T00:30:25.292Z,98571.03
2023-03-30T00:32:52.104Z,98588.56
2023-03-30T00:35:19.730Z,98592.75
2023-03-30T00:37:49.641Z,98622.91
2023-03-30T00:40:20.704Z,98623.22
2023-03-30T00:42:48.624Z,98588.59
2023-03-30T00:45:27.914Z,98589.88
2023-03-30T00:48:18.989Z,98636.16
2023-03-30T00:51:14.146Z,98627.09
2023-03-30T00:53:51.094Z,98584.56
2023-03-30T00:56:23.168Z,98623.03
2023-03-30T00:58:50.551Z,98616.38
2023-03-30T01:01:25.972Z,98604.88
2023-03-30T01:03:53.861Z,98639.84
2023-03-30T01:06:24.559Z,98556.72
2023-03-30T01:08:53.263Z,98629.06
2023-03-30T01:11:21.381Z,98551.78
2023-03-30T01:13:51.123Z,98632.25
2023-03-30T01:16:36.178Z,98625.13
2023-03-30T01:19:16.541Z,98629.22
2023-03-30T01:22:20.291Z,98625.94
2023-03-30T01:25:03.077Z,98620.31
2023-03-30T01:27:51.771Z,98583.34
2023-03-30T01:30:49.743Z,98626.34
2023-03-30T01:33:28.678Z,98579.19
2023-03-30T01:36:31.292Z,98582.22
2023-03-30T01:39:29.368Z,98616.09
2023-03-30T01:41:59.196Z,98609.59
2023-03-30T01:44:44.037Z,98609.06
2023-03-30T01:47:28.835Z,98569.34
2023-03-30T01:50:06.053Z,98538.06
2023-03-30T01:52:41.353Z,98454.31
2023-03-30T01:55:26.473Z,98480.22
2023-03-30T01:57:59.173Z,98619.38
2023-03-30T02:00:27.897Z,98531.69
2023-03-30T02:03:00.692Z,98531.41
2023-03-30T02:05:30.742Z,98474.66
2023-03-30T02:08:03.373Z,98521.69
2023-03-30T02:10:34.042Z,98445.44
2023-03-30T02:13:01.808Z,98600.16
2023-03-30T02:15:37.626Z,98586.75
2023-03-30T02:18:05.085Z,98544.84
2023-03-30T02:20:33.349Z,98576.56
2023-03-30T02:23:01.638Z,98579.28
2023-03-30T02:25:28.757Z,98569.94
2023-03-30T02:27:56.545Z,98607.47
2023-03-30T02:30:23.325Z,98610.38
2023-03-30T02:32:55.022Z,98621.09
2023-03-30T02:35:39.230Z,98621.75
2023-03-30T02:38:32.795Z,98642.59
2023-03-30T02:41:24.250Z,98557.34
2023-03-30T02:44:11.252Z,98646.03
2023-03-30T02:47:10.444Z,98643.72
2023-03-30T02:49:55.406Z,98500.25
2023-03-30T02:52:47.273Z,98642.00
2023-03-30T02:55:20.879Z,98639.75
2023-03-30T02:58:01.790Z,98640.13
2023-03-30T03:00:51.580Z,98638.06
2023-03-30T03:03:24.732Z,98577.03
2023-03-30T03:05:54.072Z,98634.56
2023-03-30T03:08:25.394Z,98646.53
2023-03-30T03:10:52.375Z,98599.47
2023-03-30T03:13:22.195Z,98596.94
2023-03-30T03:15:49.833Z,98593.78
2023-03-30T03:18:16.726Z,98625.34
2023-03-30T03:20:43.548Z,98558.00
2023-03-30T03:23:10.256Z,98598.28
2023-03-30T03:25:37.232Z,98619.22
2023-03-30T03:28:04.262Z,98606.66
2023-03-30T03:30:31.036Z,98521.91
2023-03-30T03:32:58.278Z,98541.44
2023-03-30T03:35:25.248Z,98598.94
2023-03-30T03:37:52.023Z,98529.91
2023-03-30T03:40:18.855Z,98481.34
2023-03-30T03:42:45.748Z,98552.88
2023-03-30T03:45:12.797Z,98575.97
2023-03-30T03:47:39.828Z,98476.44
2023-03-30T03:50:10.010Z,98619.25
2023-03-30T03:52:37.450Z,98569.25
2023-03-30T03:55:05.228Z,98625.09
2023-03-30T03:57:32.148Z,98590.94
2023-03-30T04:00:00.107Z,98489.13
2023-03-30T04:02:27.893Z,98661.00
2023-03-30T04:04:55.909Z,98577.56
2023-03-30T04:07:25.689Z,98661.00
2023-03-30T04:09:52.716Z,98571.28
2023-03-30T04:12:20.453Z,98573.34
2023-03-30T04:14:47.432Z,98664.72
2023-03-30T04:17:15.012Z,98595.81
2023-03-30T04:19:42.172Z,98646.06
2023-03-30T04:22:09.195Z,98626.00
2023-03-30T04:24:36.085Z,98624.88
2023-03-30T04:27:03.454Z,98604.19
2023-03-30T04:29:30.986Z,98522.19
2023-03-30T04:32:02.956Z,98625.03
2023-03-30T04:34:31.365Z,98560.44
2023-03-30T04:36:58.273Z,98521.06
2023-03-30T04:39:25.418Z,98634.63
2023-03-30T04:41:54.442Z,98593.75
2023-03-30T04:44:22.224Z,98656.84
2023-03-30T04:46:49.208Z,98620.03
2023-03-30T04:49:16.109Z,98669.72
2023-03-30T04:51:43.394Z,98641.22
2023-03-30T04:54:10.253Z,98605.56
2023-03-30T04:56:37.042Z,98670.41
2023-03-30T04:59:03.766Z,98610.78
2023-03-30T05:01:30.966Z,98580.28
2023-03-30T05:03:57.786Z,98537.44
2023-03-30T05:06:24.464Z,98549.69
2023-03-30T05:08:51.660Z,98648.03
2023-03-30T05:11:18.350Z,98651.31
2023-03-30T05:13:45.035Z,98602.25
2023-03-30T05:16:11.840Z,98624.22
2023-03-30T05:18:39.396Z,98614.75
2023-03-30T05:21:06.443Z,98610.88
2023-03-30T05:23:33.344Z,98583.97
2023-03-30T05:26:00.133Z,98619.59
2023-03-30T05:28:26.921Z,98674.47
2023-03-30T05:30:56.960Z,98601.00
2023-03-30T05:33:24.363Z,98602.50
2023-03-30T05:35:52.024Z,98665.06
2023-03-30T05:38:18.718Z,98612.88
2023-03-30T05:40:45.452Z,98604.56
2023-03-30T05:43:12.472Z,98675.06
2023-03-30T05:45:39.229Z,98638.28
2023-03-30T05:48:07.288Z,98508.75
2023-03-30T05:50:34.087Z,98572.69
2023-03-30T05:53:01.141Z,98683.69
2023-03-30T05:55:28.025Z,98560.94
2023-03-30T05:57:54.888Z,98669.59
2023-03-30T06:00:23.039Z,98650.63
2023-03-30T06:02:49.922Z,98681.25
2023-03-30T06:05:17.402Z,98627.13
2023-03-30T06:07:45.805Z,98658.75
2023-03-30T06:10:13.190Z,98682.41
2023-03-30T06:12:40.202Z,98684.41
2023-03-30T06:15:10.911Z,98637.41
2023-03-30T06:17:37.942Z,98699.13
2023-03-30T06:20:11.466Z,98644.47
2023-03-30T06:22:41.521Z,98634.59
2023-03-30T06:25:09.407Z,98653.78
2023-03-30T06:27:37.491Z,98655.47
2023-03-30T06:30:05.368Z,98635.97
2023-03-30T06:32:32.186Z,98658.03
2023-03-30T06:34:58.827Z,98668.06
2023-03-30T06:37:25.493Z,98620.66
2023-03-30T06:39:52.744Z,98677.69
2023-03-30T06:42:19.524Z,98687.28
2023-03-30T06:44:48.134Z,98684.44
2023-03-30T06:47:16.540Z,98659.44
2023-03-30T06:49:43.270Z,98684.72
2023-03-30T06:52:11.510Z,98696.38
2023-03-30T06:54:38.185Z,98665.41
2023-03-30T06:57:04.902Z,98645.94
2023-03-30T06:59:34.532Z,98682.66
2023-03-30T07:02:01.584Z,98694.41
2023-03-30T07:04:28.596Z,98687.31
2023-03-30T07:06:57.849Z,98678.00
2023-03-30T07:09:25.187Z,98723.94
2023-03-30T07:11:53.890Z,98734.56
2023-03-30T07:14:23.002Z,98708.53
2023-03-30T07:16:49.777Z,98711.72
2023-03-30T07:19:16.596Z,98716.38
2023-03-30T07:21:43.539Z,98694.34
2023-03-30T07:24:10.291Z,98698.16
2023-03-30T07:26:37.141Z,98745.84
2023-03-30T07:29:05.433Z,98690.81
2023-03-30T07:31:32.273Z,98705.38
2023-03-30T07:33:59.133Z,98706.19
2023-03-30T07:36:25.858Z,98705.00
2023-03-30T07:38:52.835Z,98685.69
2023-03-30T07:41:19.871Z,98737.53
2023-03-30T07:43:46.583Z,98722.91
2023-03-30T07:46:13.427Z,98712.28
2023-03-30T07:48:40.956Z,98703.19
2023-03-30T07:51:13.687Z,98696.88
2023-03-30T07:53:41.057Z,98702.88
2023-03-30T07:56:08.274Z,98760.94
2023-03-30T07:58:34.999Z,98705.28
2023-03-30T08:01:03.360Z,98735.56
2023-03-30T08:03:32.226Z,98711.00
2023-03-30T08:06:01.221Z,98713.78
2023-03-30T08:08:28.052Z,98702.75
2023-03-30T08:10:54.881Z,98738.44
2023-03-30T08:13:22.129Z,98766.00
2023-03-30T08:15:50.751Z,98740.03
2023-03-30T08:18:17.522Z,98752.34
2023-03-30T08:20:44.526Z,98769.78
2023-03-30T08:23:12.441Z,98789.56
2023-03-30T08:25:39.062Z,98728.97
2023-03-30T08:28:06.137Z,98737.06
2023-03-30T08:30:35.667Z,98782.22
2023-03-30T08:33:03.042Z,98746.47
2023-03-30T08:35:29.732Z,98766.25
2023-03-30T08:37:56.375Z,98773.97
2023-03-30T08:40:23.635Z,98745.31
2023-03-30T08:42:59.374Z,98810.44
2023-03-30T08:45:33.485Z,98777.34
2023-03-30T08:48:00.381Z,98800.72
2023-03-30T08:50:34.242Z,98807.50
2023-03-30T08:53:02.513Z,98766.06
2023-03-30T08:56:07.834Z,98789.78
2023-03-30T08:58:47.376Z,98817.44
2023-03-30T09:01:34.754Z,98813.66
2023-03-30T09:04:20.841Z,98766.34
2023-03-30T09:06:53.858Z,98804.44
2023-03-30T09:09:23.661Z,98816.69
2023-03-30T09:11:58.112Z,98784.63
2023-03-30T09:14:53.350Z,98792.25
2023-03-30T09:17:25.523Z,98812.16
2023-03-30T09:20:00.567Z,98788.88
2023-03-30T09:22:34.233Z,98789.88
2023-03-30T09:25:01.524Z,98778.44
2023-03-30T09:27:33.982Z,98823.78
2023-03-30T09:30:10.175Z,98821.41
2023-03-30T09:32:46.803Z,98778.63
2023-03-30T09:35:13.373Z,98815.59
2023-03-30T09:37:40.028Z,98818.47
2023-03-30T09:40:34.266Z,98852.31
2023-03-30T09:43:27.032Z,98837.56
2023-03-30T09:45:56.931Z,98807.06
2023-03-30T09:48:23.630Z,98774.59
2023-03-30T09:50:50.274Z,98770.69
2023-03-30T09:53:29.526Z,98832.81
2023-03-30T09:56:02.682Z,98789.84
2023-03-30T09:58:36.296Z,98817.19
2023-03-30T10:01:05.086Z,98781.63
2023-03-30T10:03:32.780Z,98811.59
2023-03-30T10:06:08.624Z,98814.59
2023-03-30T10:08:43.369Z,98844.44
2023-03-30T10:11:10.796Z,98828.31
2023-03-30T10:13:41.791Z,98841.31
2023-03-30T10:16:23.625Z,98832.84
2023-03-30T10:18:54.404Z,98845.25
2023-03-30T10:21:27.159Z,98861.50
2023-03-30T10:24:12.638Z,98862.22
2023-03-30T10:26:39.467Z,98862.00
2023-03-30T10:29:08.059Z,98834.03
2023-03-30T10:31:37.659Z,98817.72
2023-03-30T10:34:14.279Z,98850.19
2023-03-30T10:36:41.152Z,98824.53
2023-03-30T10:39:33.916Z,98869.19
2023-03-30T10:42:04.351Z,98821.19
2023-03-30T10:44:37.084Z,98844.31
2023-03-30T10:47:06.722Z,98866.81
2023-03-30T10:50:06.048Z,98857.53
2023-03-30T10:52:43.045Z,98818.63
2023-03-30T10:55:29.063Z,98845.28
2023-03-30T10:58:01.520Z,98877.94
2023-03-30T11:00:56.346Z,98884.41
2023-03-30T11:03:29.645Z,98839.00
2023-03-30T11:06:05.380Z,98859.31
2023-03-30T11:08:39.455Z,98858.63
2023-03-30T11:11:07.622Z,98853.06
2023-03-30T11:13:40.113Z,98863.25
2023-03-30T11:16:39.338Z,98872.47
2023-03-30T11:19:54.538Z,98809.72
2023-03-30T11:22:34.485Z,98878.16
2023-03-30T11:25:03.369Z,98845.69
2023-03-30T11:27:33.985Z,98872.31
2023-03-30T11:30:17.492Z,98852.59
2023-03-30T11:32:53.137Z,98874.00
2023-03-30T11:35:39.346Z,98879.66
2023-03-30T11:38:16.163Z,98860.09
2023-03-30T11:40:46.442Z,98848.31
2023-03-30T11:43:15.825Z,98865.66
2023-03-30T11:46:03.554Z,98859.41
2023-03-30T11:48:58.659Z,98874.44
2023-03-30T11:51:35.695Z,98878.03
2023-03-30T11:54:36.257Z,98820.78
2023-03-30T11:57:15.208Z,98884.16
2023-03-30T11:59:54.105Z,98880.78
2023-03-30T12:03:10.111Z,98885.31
2023-03-30T12:05:43.489Z,98880.31
2023-03-30T12:08:42.620Z,98885.00
2023-03-30T12:11:12.230Z,98887.16
2023-03-30T12:13:50.241Z,98845.88
2023-03-30T12:16:27.575Z,98858.03
2023-03-30T12:19:15.685Z,98854.53
2023-03-30T12:22:14.056Z,98886.78
2023-03-30T12:25:22.292Z,98881.22
2023-03-30T12:27:58.752Z,98852.75
2023-03-30T12:30:59.745Z,98868.16
2023-03-30T12:33:43.812Z,98886.78
2023-03-30T12:36:40.890Z,98875.53
2023-03-30T12:39:32.187Z,98869.97
2023-03-30T12:42:08.114Z,98827.03
2023-03-30T12:44:39.358Z,98831.50
2023-03-30T12:47:30.384Z,98848.72
2023-03-30T12:50:25.517Z,98879.03
2023-03-30T12:53:16.830Z,98872.91
2023-03-30T12:55:55.733Z,98826.91
2023-03-30T12:58:37.406Z,98857.13
2023-03-30T13:01:21.553Z,98879.91
2023-03-30T13:03:54.349Z,98837.25
2023-03-30T13:06:28.736Z,98802.69
2023-03-30T13:09:03.604Z,98880.94
2023-03-30T13:11:50.117Z,98835.25
2023-03-30T13:14:26.412Z,98807.72
2023-03-30T13:16:53.256Z,98868.31
2023-03-30T13:19:32.561Z,98871.63
2023-03-30T13:22:11.620Z,98822.47
2023-03-30T13:25:12.380Z,98863.88
2023-03-30T13:27:41.961Z,98799.03
2023-03-30T13:30:08.624Z,98865.53
2023-03-30T13:33:11.567Z,98860.75
2023-03-30T13:35:47.192Z,98813.56
2023-03-30T13:38:16.925Z,98855.09
2023-03-30T13:40:57.951Z,98857.97
2023-03-30T13:43:48.569Z,98856.22
2023-03-30T13:46:33.010Z,98847.06
2023-03-30T13:49:17.737Z,98859.38
2023-03-30T13:51:46.042Z,98828.25
2023-03-30T13:54:27.943Z,98816.41
2023-03-30T13:57:21.102Z,98856.16
2023-03-30T13:59:54.072Z,98826.06
2023-03-30T14:02:23.853Z,98840.72
2023-03-30T14:04:50.628Z,98854.13
2023-03-30T14:07:22.451Z,98848.53
2023-03-30T14:10:19.943Z,98859.44
2023-03-30T14:12:55.307Z,98825.16
2023-03-30T14:15:33.924Z,98841.78
2023-03-30T14:18:04.656Z,98806.22
2023-03-30T14:20:31.634Z,98861.38
2023-03-30T14:23:00.489Z,98832.50
2023-03-30T14:25:32.012Z,98847.50
2023-03-30T14:28:29.223Z,98859.19
2023-03-30T14:31:05.069Z,98852.75
2023-03-30T14:33:35.098Z,98848.22
2023-03-30T14:36:02.682Z,98797.22
2023-03-30T14:38:38.004Z,98812.00
2023-03-30T14:41:09.252Z,98850.94
2023-03-30T14:43:40.730Z,98845.13
2023-03-30T14:46:12.482Z,98849.50
2023-03-30T14:48:43.219Z,98849.53
2023-03-30T14:51:27.977Z,98850.19
2023-03-30T14:53:55.484Z,98840.56
2023-03-30T14:56:23.474Z,98804.59
2023-03-30T14:58:52.049Z,98811.53
2023-03-30T15:01:32.671Z,98832.78
2023-03-30T15:04:06.049Z,98845.47
2023-03-30T15:06:32.904Z,98817.13
2023-03-30T15:09:02.170Z,98775.31
2023-03-30T15:11:31.909Z,98799.25
2023-03-30T15:14:04.077Z,98804.28
2023-03-30T15:16:33.680Z,98852.47
2023-03-30T15:19:12.985Z,98804.25
2023-03-30T15:21:40.606Z,98794.81
2023-03-30T15:24:10.308Z,98823.84
2023-03-30T15:26:43.589Z,98783.28
2023-03-30T15:29:10.784Z,98807.41
2023-03-30T15:31:37.671Z,98826.91
2023-03-30T15:34:14.011Z,98808.09
2023-03-30T15:36:41.078Z,98799.59
2023-03-30T15:39:34.038Z,98832.59
2023-03-30T15:42:04.562Z,98842.75
2023-03-30T15:44:39.094Z,98840.25
2023-03-30T15:47:12.318Z,98792.69
2023-03-30T15:49:45.964Z,98775.88
2023-03-30T15:52:19.683Z,98763.84
2023-03-30T15:54:54.122Z,98786.47
2023-03-30T15:57:30.232Z,98781.91
2023-03-30T16:00:03.163Z,98801.47
2023-03-30T16:02:32.899Z,98837.72
2023-03-30T16:05:04.729Z,98798.84
2023-03-30T16:07:32.297Z,98814.00
2023-03-30T16:09:59.008Z,98789.25
2023-03-30T16:12:28.145Z,98828.13
2023-03-30T16:14:56.091Z,98795.50
2023-03-30T16:17:22.997Z,98760.94
2023-03-30T16:19:49.625Z,98767.44
2023-03-30T16:22:16.633Z,98836.47
2023-03-30T16:24:43.549Z,98819.66
2023-03-30T16:27:14.161Z,98772.69
2023-03-30T16:29:41.097Z,98785.75
2023-03-30T16:32:08.005Z,98816.91
2023-03-30T16:34:34.793Z,98797.72
2023-03-30T16:37:02.077Z,98774.63
2023-03-30T16:39:29.958Z,98804.38
2023-03-30T16:41:57.053Z,98796.84
2023-03-30T16:44:25.095Z,98832.75
2023-03-30T16:46:52.406Z,98813.53
2023-03-30T16:49:22.493Z,98787.41
2023-03-30T16:51:50.024Z,98794.22
2023-03-30T16:54:30.234Z,98831.09
2023-03-30T16:56:59.753Z,98767.66
2023-03-30T16:59:32.064Z,98792.13
2023-03-30T17:01:59.540Z,98780.84
2023-03-30T17:04:26.601Z,98777.09
2023-03-30T17:06:56.282Z,98791.09
2023-03-30T17:09:23.377Z,98775.09
2023-03-30T17:11:50.472Z,98792.03
2023-03-30T17:14:17.363Z,98816.63
2023-03-30T17:16:44.118Z,98797.25
2023-03-30T17:19:12.719Z,98787.75
2023-03-30T17:21:42.806Z,98808.56
2023-03-30T17:24:11.020Z,98845.78
2023-03-30T17:26:37.975Z,98805.66
2023-03-30T17:29:04.836Z,98838.22
2023-03-30T17:31:31.614Z,98838.41
2023-03-30T17:33:58.279Z,98763.16
2023-03-30T17:36:26.138Z,98790.06
2023-03-30T17:38:53.176Z,98821.88
2023-03-30T17:41:20.755Z,98820.59
2023-03-30T17:43:49.115Z,98820.28
2023-03-30T17:46:18.296Z,98851.03
2023-03-30T17:48:45.722Z,98868.19
2023-03-30T17:51:12.413Z,98846.75
2023-03-30T17:53:39.190Z,98792.66
2023-03-30T17:56:06.442Z,98788.78
2023-03-30T17:58:36.457Z,98855.66
2023-03-30T18:01:08.588Z,98845.75
2023-03-30T18:03:38.517Z,98815.44
2023-03-30T18:06:05.973Z,98817.50
2023-03-30T18:08:32.633Z,98815.94
2023-03-30T18:11:00.772Z,98798.78
2023-03-30T18:13:29.003Z,98854.16
2023-03-30T18:15:58.600Z,98823.88
2023-03-30T18:18:28.230Z,98869.66
2023-03-30T18:21:03.610Z,98815.53
2023-03-30T18:23:37.378Z,98828.06
2023-03-30T18:26:12.231Z,98835.59
2023-03-30T18:28:42.522Z,98805.97
2023-03-30T18:31:09.438Z,98866.28
2023-03-30T18:33:36.246Z,98849.09
2023-03-30T18:36:06.124Z,98893.28
2023-03-30T18:38:33.604Z,98840.84
2023-03-30T18:41:01.425Z,98886.09
2023-03-30T18:43:28.349Z,98828.88
2023-03-30T18:46:00.058Z,98873.19
2023-03-30T18:48:28.325Z,98842.34
2023-03-30T18:50:55.767Z,98884.50
2023-03-30T18:53:25.348Z,98884.88
2023-03-30T18:55:54.554Z,98897.91
2023-03-30T18:58:24.343Z,98901.81
2023-03-30T19:00:52.494Z,98894.13
2023-03-30T19:03:20.580Z,98843.78
2023-03-30T19:05:47.689Z,98876.75
2023-03-30T19:08:23.318Z,98862.31
2023-03-30T19:10:53.163Z,98903.22
2023-03-30T19:13:21.753Z,98853.56
2023-03-30T19:15:50.043Z,98919.09
2023-03-30T19:18:17.957Z,98903.38
2023-03-30T19:20:45.528Z,98904.53
2023-03-30T19:23:15.757Z,98900.47
2023-03-30T19:25:43.545Z,98836.09
2023-03-30T19:28:11.836Z,98888.28
2023-03-30T19:30:39.899Z,98870.59
2023-03-30T19:33:12.235Z,98881.13
2023-03-30T19:35:43.881Z,98879.94
2023-03-30T19:38:10.808Z,98863.97
2023-03-30T19:40:41.106Z,98880.56
2023-03-30T19:43:09.749Z,98879.16
2023-03-30T19:45:36.669Z,98875.44
2023-03-30T19:48:03.494Z,98891.66
2023-03-30T19:50:30.634Z,98828.13
2023-03-30T19:52:58.092Z,98870.41
2023-03-30T19:55:25.033Z,98847.09
2023-03-30T19:57:51.807Z,98858.88
2023-03-30T20:00:19.356Z,98882.13
2023-03-30T20:02:48.738Z,98890.31
2023-03-30T20:05:16.749Z,98826.84
2023-03-30T20:07:45.190Z,98887.06
2023-03-30T20:10:14.885Z,98847.78
2023-03-30T20:12:42.875Z,98883.38
2023-03-30T20:15:10.057Z,98830.09
2023-03-30T20:17:38.414Z,98861.31
2023-03-30T20:20:09.280Z,98875.44
2023-03-30T20:22:37.924Z,98802.47
2023-03-30T20:25:08.479Z,98824.56
2023-03-30T20:27:36.038Z,98847.50
2023-03-30T20:30:04.514Z,98880.69
2023-03-30T20:32:31.950Z,98827.09
2023-03-30T20:34:58.731Z,98823.94
2023-03-30T20:37:25.350Z,98818.50
2023-03-30T20:39:52.189Z,98798.19
2023-03-30T20:42:26.250Z,98802.47
2023-03-30T20:44:53.648Z,98833.06
2023-03-30T20:47:23.516Z,98848.31
2023-03-30T20:49:50.376Z,98822.47
2023-03-30T20:52:17.238Z,98870.44
2023-03-30T20:54:44.781Z,98826.00
2023-03-30T20:57:11.986Z,98820.50
2023-03-30T20:59:39.604Z,98820.38
2023-03-30T21:02:07.162Z,98865.06
2023-03-30T21:04:34.193Z,98796.94
2023-03-30T21:07:01.047Z,98790.13
2023-03-30T21:09:28.849Z,98830.84
2023-03-30T21:11:55.886Z,98842.75
2023-03-30T21:14:24.244Z,98797.22
2023-03-30T21:16:51.039Z,98803.59
2023-03-30T21:19:17.769Z,98806.09
2023-03-30T21:21:44.797Z,98799.47
2023-03-30T21:24:12.271Z,98785.47
2023-03-30T21:26:39.034Z,98783.44
2023-03-30T21:29:05.842Z,98806.16
2023-03-30T21:31:32.950Z,98784.38
2023-03-30T21:34:00.105Z,98767.31
2023-03-30T21:36:27.404Z,98751.81
2023-03-30T21:38:56.234Z,98781.25
2023-03-30T21:41:24.350Z,98816.50
2023-03-30T21:43:51.287Z,98799.06
2023-03-30T21:46:21.406Z,98826.84
2023-03-30T21:48:52.570Z,98820.56
2023-03-30T21:51:27.426Z,98799.84
2023-03-30T21:53:56.163Z,98823.16
2023-03-30T21:56:24.948Z,98761.38
2023-03-30T21:58:54.717Z,98800.03
2023-03-30T22:01:24.238Z,98818.44
2023-03-30T22:03:52.097Z,98803.09
2023-03-30T22:06:19.808Z,98815.94
2023-03-30T22:08:47.111Z,98781.63
2023-03-30T22:11:19.319Z,98813.09
2023-03-30T22:13:48.349Z,98781.63
2023-03-30T22:16:18.753Z,98814.06
2023-03-30T22:18:46.443Z,98810.31
2023-03-30T22:21:16.367Z,98807.81
2023-03-30T22:23:43.464Z,98742.84
2023-03-30T22:26:11.557Z,98770.16
2023-03-30T22:28:38.228Z,98746.97
2023-03-30T22:31:09.836Z,98811.66
2023-03-30T22:33:36.727Z,98786.88
2023-03-30T22:36:04.333Z,98785.00
2023-03-30T22:38:31.448Z,98778.00
2023-03-30T22:41:07.846Z,98778.41
2023-03-30T22:43:35.989Z,98796.94
2023-03-30T22:46:03.705Z,98782.88
2023-03-30T22:48:30.627Z,98779.91
2023-03-30T22:51:02.169Z,98812.47
2023-03-30T22:53:32.832Z,98746.25
2023-03-30T22:56:00.310Z,98809.91
2023-03-30T22:58:27.649Z,98784.13
2023-03-30T23:01:01.190Z,98751.16
2023-03-30T23:03:28.287Z,98769.25
2023-03-30T23:05:55.948Z,98804.06
2023-03-30T23:08:24.001Z,98776.75
2023-03-30T23:10:53.951Z,98757.59
2023-03-30T23:13:20.544Z,98725.84
2023-03-30T23:15:48.784Z,98752.63
2023-03-30T23:18:16.122Z,98796.53
2023-03-30T23:20:46.823Z,98763.25
2023-03-30T23:23:14.565Z,98769.38
2023-03-30T23:25:49.477Z,98779.97
2023-03-30T23:28:16.655Z,98747.66
2023-03-30T23:30:44.945Z,98771.69
2023-03-30T23:33:12.165Z,98760.81
2023-03-30T23:35:38.973Z,98724.94
2023-03-30T23:38:05.638Z,98722.41
2023-03-30T23:40:32.392Z,98759.75
2023-03-30T23:42:59.047Z,98684.88
2023-03-30T23:45:25.862Z,98733.41
2023-03-30T23:47:52.705Z,98736.34
2023-03-30T23:50:19.351Z,98716.38
2023-03-30T23:52:46.679Z,98747.66
2023-03-30T23:55:13.337Z,98761.34
2023-03-30T23:57:40.046Z,98742.06
